ADDS METAR Data INFO
IDs: Format: Raw Decoded Include TAF

Data at: 2010 UTC 19 Oct 2017

PHNY 191956Z AUTO 06022G29KT 10SM SCT034 25/17 A3014 RMK AO2 PK WND 07040/1931 SLP185 T02500172
PHNY 191856Z AUTO 07017G28KT 10SM FEW026 24/17 A3014 RMK AO2 PK WND 07028/1848 SLP184 T02440167
PHNY 191756Z AUTO 08019G31KT 10SM SCT002 SCT029 BKN034 24/17 A3013 RMK AO2 PK WND 06031/1747 SLP183 T02390167 10239 20206 53006
PHNY 191721Z AUTO 06015G20KT 10SM SCT028 23/16 A3014 RMK AO2
PHNY 191656Z AUTO 10013G26KT 10SM OVC024 22/17 A3013 RMK AO2 PK WND 07028/1606 SLP184 T02170172
PHNY 191612Z AUTO 07018G28KT 10SM BKN022 BKN027 BKN044 22/17 A3010 RMK AO2 PK WND 07028/1606
PHNY 191556Z AUTO 08019G28KT 10SM SCT020 SCT041 BKN049 22/18 A3009 RMK AO2 PK WND 07028/1552 SLP168 T02170178
PHNY 191456Z AUTO 07012KT 10SM FEW031 22/16 A3011 RMK AO2 SLP176 T02170161 55003
PHNY 191421Z AUTO 07012G19KT 10SM FEW021 SCT036 22/17 A3011 RMK AO2
PHNY 191356Z AUTO 08015G21KT 10SM BKN024 BKN029 22/17 A3010 RMK AO2 SLP170 T02170172
PHNY 191256Z AUTO 05012KT 10SM CLR 21/17 A3011 RMK AO2 SLP173 T02110172
PHNY 191156Z AUTO 03012KT 10SM OVC043 21/17 A3012 RMK AO2 SLP178 T02110172 10217 20200 58010
PHNY 191056Z AUTO 12006KT 10SM CLR 21/17 A3014 RMK AO2 SLP185 T02110167
PHNY 190956Z AUTO 02004KT 10SM FEW050 21/17 A3015 RMK AO2 SLP189 T02060167 402780206
PHNY 190856Z AUTO 04009KT 10SM OVC043 22/17 A3015 RMK AO2 SLP189 T02170172 51010
PHNY 190756Z AUTO 07011KT 10SM CLR 22/18 A3015 RMK AO2 SLP187 T02170178
PHNY 190656Z AUTO 05013G24KT 10SM FEW045 22/18 A3014 RMK AO2 SLP187 T02170178
PHNY 190610Z AUTO 08013G21KT 10SM FEW022 22/18 A3013 RMK AO2
PHNY 190556Z AUTO 06014G19KT 10SM SCT022 BKN028 BKN034 22/18 A3012 RMK AO2 SLP181 T02170178 10267 20217 53020
PHNY 190456Z AUTO 06017G32KT 10SM FEW027 SCT060 22/18 A3010 RMK AO2 PK WND 04032/0452 SLP175 T02220178
PHNY 190356Z AUTO 05028G33KT 10SM FEW032 23/16 A3006 RMK AO2 PK WND 04033/0354 PRESFR SLP159 T02280161
PHNY 190256Z AUTO 04025G32KT 10SM CLR 24/18 A3006 RMK AO2 PK WND 04032/0255 SLP159 T02390178 56011
PHNY 190156Z AUTO 05019G27KT 10SM CLR 25/17 A3007 RMK AO2 PK WND 05033/0103 SLP162 T02500167
PHNY 190056Z AUTO 06018G28KT 10SM SCT032 SCT042 26/17 A3007 RMK AO2 PK WND 06030/0010 SLP162 T02560172
PHNY 182356Z AUTO 08016G26KT 10SM FEW027 26/17 A3009 RMK AO2 PK WND 06028/2346 SLP168 T02610167 10278 20222 58009
PHNY 182256Z AUTO 04020G25KT 10SM FEW028 BKN035 BKN042 25/19 A3010 RMK AO2 PK WND 03028/2208 SLP172 T02500189
PHNY 182156Z AUTO 03019G23KT 10SM BKN042 OVC050 26/18 A3013 RMK AO2 PK WND 05028/2059 WSHFT 2104 SLP180 T02560178
PHNY 182129Z AUTO 14015G20KT 10SM BKN048 27/16 A3013 RMK AO2 PK WND 05028/2059 WSHFT 2104
PHNY 182056Z AUTO 07022KT 10SM BKN039 26/17 A3012 RMK AO2 SLP178 T02610167 58000
PHNY 181956Z AUTO 11010G21KT 10SM BKN041 26/16 A3014 RMK AO2 PK WND 09026/1930 SLP185 T02560156
PHNY 181856Z AUTO 08016G26KT 10SM FEW002 BKN032 BKN041 23/17 A3012 RMK AO2 PK WND 06030/1825 SLP181 T02280167
PHNY 181848Z AUTO 07016G24KT 10SM FEW002 SCT030 BKN041 23/17 A3012 RMK AO2 PK WND 06030/1825
PHNY 181821Z AUTO 06024G28KT 10SM SCT024 23/17 A3010 RMK AO2 PK WND 07028/1818
PHNY 181756Z AUTO 09007G19KT 10SM BKN026 BKN034 22/17 A3012 RMK AO2 PK WND 07029/1658 SLP178 T02220167 10228 20206 53017
PHNY 181728Z AUTO 06016KT 10SM FEW003 23/17 A3011 RMK AO2 PK WND 07029/1658
PHNY 181656Z AUTO 06023G29KT 10SM FEW028 21/16 A3008 RMK AO2 PK WND 06029/1656 SLP165 T02110161
PHNY 181556Z AUTO 06019G23KT 10SM SCT022 21/17 A3007 RMK AO2 PK WND 05028/1545 SLP165 T02110167
PHNY 181546Z AUTO 05023G28KT 10SM BKN022 21/17 A3006 RMK AO2 PK WND 05028/1545
PHNY 181456Z AUTO 06015G25KT 10SM CLR 21/16 A3008 RMK AO2 SLP165 T02110161 55000
PHNY 181356Z AUTO 08007KT 10SM FEW025 21/17 A3007 RMK AO2 SLP162 T02110167
PHNY 181256Z AUTO 07013G25KT 10SM CLR 21/17 A3007 RMK AO2 PK WND 06029/1221 SLP161 T02110167
PHNY 181156Z AUTO 03010KT 10SM FEW025 22/16 A3008 RMK AO2 WSHFT 1111 SLP162 T02170161 10222 20211 58012
PHNY 181136Z AUTO 03013KT 10SM CLR 21/16 A3009 RMK AO2 WSHFT 1111
PHNY 181117Z AUTO 06010KT 10SM FEW027 21/17 A3010 RMK AO2
PHNY 181056Z AUTO 08017G21KT 10SM OVC025 22/17 A3009 RMK AO2 WSHFT 1032 SLP165 T02170167
PHNY 180956Z AUTO 09009KT 10SM FEW021 SCT032 21/16 A3012 RMK AO2 PK WND 04028/0901 SLP176 T02110161 402610211
PHNY 180931Z AUTO 08014G23KT 10SM BKN021 BKN027 OVC050 22/17 A3011 RMK AO2 PK WND 04028/0901
PHNY 180856Z AUTO 05017G21KT 10SM FEW024 SCT033 SCT040 21/17 A3011 RMK AO2 PK WND 08031/0813 SLP177 T02110172 51009